Time;durP1;ratioP1;P1;durP2;ratioP2;P2;SDS_P1;SDS_P2;PMS_P1;PMS_P2;Temp;Humidity;BMP_temperature;BMP_pressure;BME280_temperature;BME280_humidity;BME280_pressure;Samples;Min_cycle;Max_cycle;Signal;HPM_P1;HPM_P2
2022/06/24 00:01:14;;;;;;;5.63;4.10;;;25.20;76.00;;;;;;10509685;28;20036;-60
2022/06/24 00:06:16;;;;;;;5.03;4.28;;;25.20;76.20;;;;;;10512124;28;20679;-59
2022/06/24 00:11:21;;;;;;;4.72;4.10;;;25.10;76.70;;;;;;10504544;28;20033;-57
2022/06/24 00:16:22;;;;;;;5.45;4.05;;;25.10;76.20;;;;;;10506819;28;20131;-58
2022/06/24 00:21:23;;;;;;;6.63;4.47;;;25.00;76.20;;;;;;10513973;28;20290;-59
2022/06/24 00:26:45;;;;;;;7.13;4.05;;;25.00;76.30;;;;;;10505383;28;20348;-59
2022/06/24 00:32:06;;;;;;;5.45;4.50;;;25.00;76.50;;;;;;10509222;28;20024;-58
2022/06/24 00:37:30;;;;;;;7.95;4.45;;;25.00;76.70;;;;;;10503764;28;20024;-59
2022/06/24 00:42:31;;;;;;;6.38;4.32;;;24.90;76.70;;;;;;10510302;28;20024;-58
2022/06/24 00:47:35;;;;;;;7.15;5.15;;;24.90;76.60;;;;;;10510336;28;20025;-59
2022/06/24 00:52:37;;;;;;;6.70;4.38;;;24.80;76.60;;;;;;10509716;28;20026;-59
2022/06/24 00:57:39;;;;;;;5.97;4.75;;;24.80;76.70;;;;;;10510201;28;20365;-59
2022/06/24 01:02:40;;;;;;;7.47;5.20;;;24.80;76.70;;;;;;10509821;28;20040;-60
2022/06/24 01:07:41;;;;;;;5.95;4.65;;;24.80;76.80;;;;;;10504089;28;20028;-57
2022/06/24 01:12:42;;;;;;;6.13;4.60;;;24.80;76.90;;;;;;10507282;28;20032;-60
2022/06/24 01:17:43;;;;;;;8.90;4.70;;;24.70;76.90;;;;;;10498285;28;20032;-60
2022/06/24 01:22:44;;;;;;;4.82;4.10;;;24.70;77.00;;;;;;10505116;28;20145;-59
2022/06/24 01:27:44;;;;;;;5.15;4.57;;;24.70;77.00;;;;;;10497276;28;20079;-60
2022/06/24 01:32:45;;;;;;;6.40;4.93;;;24.60;77.00;;;;;;10505099;28;20115;-59
2022/06/24 01:37:46;;;;;;;5.10;4.35;;;24.60;77.00;;;;;;10508657;28;20122;-58
2022/06/24 01:42:47;;;;;;;5.43;4.68;;;24.60;77.10;;;;;;10500329;28;20544;-58
2022/06/24 01:47:47;;;;;;;5.22;4.60;;;24.50;77.10;;;;;;10500979;28;20024;-59
2022/06/24 01:52:48;;;;;;;6.20;4.63;;;24.50;77.10;;;;;;10502085;28;20037;-58
2022/06/24 01:57:49;;;;;;;5.35;4.82;;;24.50;77.20;;;;;;10503118;28;20081;-59
2022/06/24 02:02:49;;;;;;;5.72;4.80;;;24.50;77.30;;;;;;10504663;28;20036;-57
2022/06/24 02:07:50;;;;;;;7.20;5.10;;;24.40;77.30;;;;;;10506936;28;20434;-59
2022/06/24 02:13:33;;;;;;;5.50;4.65;;;24.40;77.30;;;;;;10498450;28;20111;-58
2022/06/24 02:18:15;;;;;;;5.53;4.97;;;24.40;77.40;;;;;;10491640;28;20047;-58
2022/06/24 02:23:18;;;;;;;8.15;5.53;;;24.40;77.50;;;;;;10503532;28;20405;-58
2022/06/24 02:28:19;;;;;;;8.15;5.38;;;24.30;78.10;;;;;;10504531;28;20027;-57
2022/06/24 02:33:20;;;;;;;6.90;5.30;;;24.30;77.60;;;;;;10503503;28;20111;-57
2022/06/24 02:38:22;;;;;;;6.05;5.43;;;24.30;77.70;;;;;;10500032;28;20076;-58
2022/06/24 02:43:25;;;;;;;5.75;5.15;;;24.20;77.70;;;;;;10506753;28;20044;-57
2022/06/24 02:48:26;;;;;;;9.25;5.30;;;24.20;77.80;;;;;;10506240;28;20169;-57
2022/06/24 02:53:29;;;;;;;7.63;5.70;;;24.20;77.90;;;;;;10498726;28;20031;-57
2022/06/24 02:58:31;;;;;;;6.55;5.68;;;24.20;78.00;;;;;;10497867;28;20028;-58
2022/06/24 03:03:32;;;;;;;8.90;6.15;;;24.10;78.10;;;;;;10497082;28;20593;-57
2022/06/24 03:08:33;;;;;;;7.65;5.80;;;24.10;78.20;;;;;;10508215;28;20020;-57
2022/06/24 03:13:34;;;;;;;8.68;5.95;;;24.10;78.30;;;;;;10508145;28;20025;-59
2022/06/24 03:18:35;;;;;;;7.55;6.32;;;24.10;78.40;;;;;;10498184;28;20041;-60
2022/06/24 03:23:35;;;;;;;6.47;5.80;;;24.00;78.50;;;;;;10509632;28;20165;-58
2022/06/24 03:28:36;;;;;;;9.48;6.00;;;24.00;78.60;;;;;;10505872;28;20024;-59
2022/06/24 03:33:37;;;;;;;8.27;5.65;;;24.00;78.70;;;;;;10505816;28;20051;-59
2022/06/24 03:38:38;;;;;;;7.53;6.10;;;24.00;78.90;;;;;;10505515;28;20124;-59
2022/06/24 03:43:38;;;;;;;8.25;5.63;;;24.00;79.00;;;;;;10506921;28;20040;-57
2022/06/24 03:48:39;;;;;;;7.57;5.28;;;23.90;79.00;;;;;;10404985;28;20036;-58
2022/06/24 03:53:40;;;;;;;7.63;5.30;;;23.90;79.20;;;;;;10406833;28;20036;-58
2022/06/24 03:58:40;;;;;;;7.78;5.32;;;23.90;79.30;;;;;;10414760;28;20036;-57
2022/06/24 04:03:41;;;;;;;5.80;5.07;;;23.90;79.40;;;;;;10414880;28;21247;-57
2022/06/24 04:08:42;;;;;;;7.00;4.50;;;23.90;79.50;;;;;;10413553;28;20340;-57
2022/06/24 04:13:43;;;;;;;6.15;4.43;;;23.80;79.70;;;;;;10410142;28;20043;-57
2022/06/24 04:18:44;;;;;;;5.60;5.00;;;23.80;79.70;;;;;;10410595;28;20073;-58
2022/06/24 04:23:45;;;;;;;5.03;4.45;;;23.80;79.90;;;;;;10413970;28;20075;-58
2022/06/24 04:28:47;;;;;;;4.85;4.35;;;23.80;80.00;;;;;;10406664;28;20565;-57
2022/06/24 04:33:47;;;;;;;5.72;4.55;;;23.70;80.10;;;;;;10404380;28;20389;-57
2022/06/24 04:38:48;;;;;;;4.50;4.10;;;23.70;80.20;;;;;;10403813;28;20901;-58
2022/06/24 04:43:49;;;;;;;6.40;4.22;;;23.70;80.20;;;;;;10411126;28;20040;-57
2022/06/24 04:48:50;;;;;;;4.70;4.28;;;23.70;80.30;;;;;;10404498;28;20067;-58
2022/06/24 04:53:51;;;;;;;5.43;3.65;;;23.70;80.30;;;;;;10399798;28;20579;-57
2022/06/24 04:58:52;;;;;;;4.63;3.90;;;23.70;80.40;;;;;;10409750;28;20544;-57
2022/06/24 05:03:53;;;;;;;4.68;4.18;;;23.70;80.50;;;;;;10403798;28;20453;-57
2022/06/24 05:08:53;;;;;;;6.13;4.05;;;23.60;80.50;;;;;;10413925;28;20376;-57
2022/06/24 05:13:54;;;;;;;5.35;3.92;;;23.60;80.70;;;;;;10405823;28;20028;-57
2022/06/24 05:18:55;;;;;;;7.47;4.25;;;23.60;80.70;;;;;;10405062;28;20063;-57
2022/06/24 05:23:56;;;;;;;5.35;3.47;;;23.60;80.80;;;;;;10409002;28;20315;-57
2022/06/24 05:28:57;;;;;;;5.07;3.58;;;23.60;80.90;;;;;;10410737;28;20025;-59
2022/06/24 05:33:58;;;;;;;6.10;3.72;;;23.50;81.00;;;;;;10409087;28;20387;-55
2022/06/24 05:39:02;;;;;;;3.90;3.40;;;23.50;81.20;;;;;;10413811;28;20501;-58
2022/06/24 05:44:03;;;;;;;4.85;3.50;;;23.50;81.40;;;;;;10416833;28;20020;-60
2022/06/24 05:49:05;;;;;;;4.03;3.55;;;23.50;81.60;;;;;;10414104;28;20029;-58
2022/06/24 05:59:25;;;;;;;3.55;3.25;;;23.50;81.70;;;;;;10402794;28;20135;-58
2022/06/24 06:04:25;;;;;;;4.93;3.30;;;23.50;81.70;;;;;;10407391;28;20886;-59
2022/06/24 06:09:26;;;;;;;4.95;3.20;;;23.40;81.90;;;;;;10404229;28;20244;-58
2022/06/24 06:14:27;;;;;;;4.03;3.45;;;23.40;81.90;;;;;;10410650;28;20363;-57
2022/06/24 06:19:27;;;;;;;4.65;3.25;;;23.40;82.00;;;;;;10399115;28;20083;-58
2022/06/24 06:24:30;;;;;;;4.22;3.63;;;23.40;82.20;;;;;;10409472;28;20105;-58
2022/06/24 06:29:32;;;;;;;3.95;2.80;;;23.40;82.20;;;;;;10414674;28;20059;-58
2022/06/24 06:34:33;;;;;;;4.07;3.17;;;23.40;82.30;;;;;;10404901;28;20094;-57
2022/06/24 06:39:33;;;;;;;3.95;2.95;;;23.30;82.30;;;;;;10408000;28;20084;-57
2022/06/24 06:44:34;;;;;;;5.18;3.17;;;23.40;82.50;;;;;;10410773;28;20481;-57
2022/06/24 06:49:35;;;;;;;3.47;2.72;;;23.30;82.60;;;;;;10420748;28;20047;-57
2022/06/24 06:54:37;;;;;;;3.58;3.08;;;23.30;82.70;;;;;;10413367;28;20487;-58
2022/06/24 06:59:38;;;;;;;3.40;2.80;;;23.30;82.70;;;;;;10415836;28;20329;-57
2022/06/24 07:04:39;;;;;;;4.00;3.03;;;23.30;82.80;;;;;;10422060;28;21031;-56
2022/06/24 07:09:39;;;;;;;3.80;2.80;;;23.30;82.90;;;;;;10415442;28;20039;-58
2022/06/24 07:14:43;;;;;;;3.17;2.83;;;23.30;83.00;;;;;;10421660;28;20348;-58
2022/06/24 07:19:45;;;;;;;4.40;3.00;;;23.20;83.10;;;;;;10425518;28;20051;-57
2022/06/24 07:24:45;;;;;;;3.58;2.85;;;23.20;83.10;;;;;;10423677;28;20032;-59
2022/06/24 07:29:46;;;;;;;4.15;2.60;;;23.20;83.20;;;;;;10418571;28;20025;-57
2022/06/24 07:34:47;;;;;;;3.90;3.05;;;23.20;83.30;;;;;;10418532;28;20035;-57
2022/06/24 07:39:48;;;;;;;4.10;2.78;;;23.20;83.30;;;;;;10414426;28;20105;-57
2022/06/24 07:44:48;;;;;;;3.17;2.53;;;23.20;83.40;;;;;;10416766;28;20055;-56
2022/06/24 07:49:49;;;;;;;4.25;3.00;;;23.10;83.50;;;;;;10417378;28;20027;-57
2022/06/24 07:56:56;;;;;;;2.83;2.53;;;23.10;83.50;;;;;;10421702;28;20448;-58
2022/06/24 08:00:11;;;;;;;3.35;2.63;;;23.10;83.60;;;;;;10422395;28;20248;-58
2022/06/24 08:05:11;;;;;;;4.57;2.22;;;23.10;83.70;;;;;;10423928;28;20482;-60
2022/06/24 08:10:12;;;;;;;3.05;2.55;;;23.10;83.90;;;;;;10419729;28;20039;-57
2022/06/24 08:15:14;;;;;;;4.30;2.70;;;23.10;84.00;;;;;;10427335;28;20378;-56
2022/06/24 08:20:15;;;;;;;3.47;2.40;;;23.00;84.10;;;;;;10425600;28;20034;-56
2022/06/24 08:25:15;;;;;;;3.40;2.53;;;23.00;84.20;;;;;;10419891;28;20905;-58
2022/06/24 08:30:16;;;;;;;4.72;2.42;;;23.00;84.30;;;;;;10410044;28;20560;-58
2022/06/24 08:35:17;;;;;;;6.30;3.80;;;23.00;84.50;;;;;;10405567;28;20459;-60
2022/06/24 08:40:19;;;;;;;26.17;9.93;;;23.00;84.90;;;;;;10414343;28;20050;-61
2022/06/24 08:45:21;;;;;;;28.35;9.52;;;23.00;85.50;;;;;;10412481;28;20162;-60
2022/06/24 08:50:23;;;;;;;31.40;9.02;;;23.10;86.10;;;;;;10410173;28;20483;-60
2022/06/24 08:55:24;;;;;;;23.02;8.90;;;23.10;86.00;;;;;;10416640;28;20413;-59
2022/06/24 09:00:25;;;;;;;20.92;7.72;;;23.00;86.10;;;;;;10407715;28;20148;-59
2022/06/24 09:05:27;;;;;;;48.08;15.95;;;23.00;86.60;;;;;;10405135;28;20440;-57
2022/06/24 09:10:28;;;;;;;25.90;10.40;;;23.10;86.90;;;;;;10409388;28;20068;-58
2022/06/24 09:15:29;;;;;;;38.20;13.60;;;23.10;87.40;;;;;;10422449;28;20039;-59
2022/06/24 09:20:32;;;;;;;60.45;20.58;;;23.10;87.50;;;;;;10421219;28;20181;-60
2022/06/24 09:25:48;;;;;;;37.95;12.50;;;23.10;87.70;;;;;;10415475;28;20032;-60
2022/06/24 09:30:49;;;;;;;33.22;10.98;;;23.10;88.40;;;;;;10415266;28;20016;-58
2022/06/24 09:35:59;;;;;;;8.15;3.70;;;23.10;88.00;;;;;;10405175;28;20039;-60
2022/06/24 09:41:04;;;;;;;4.13;2.92;;;23.00;89.90;;;;;;10406667;28;20233;-58
2022/06/24 09:46:04;;;;;;;4.68;2.80;;;22.80;90.50;;;;;;10410417;28;20143;-60
2022/06/24 09:51:07;;;;;;;6.10;3.03;;;22.60;91.30;;;;;;10404933;28;20020;-58
2022/06/24 09:56:10;;;;;;;6.93;2.78;;;22.50;91.80;;;;;;10413988;28;20038;-60
2022/06/24 10:01:11;;;;;;;3.95;2.80;;;22.40;92.30;;;;;;10409032;28;20075;-59
2022/06/24 10:06:12;;;;;;;410.95;151.32;;;22.30;92.60;;;;;;10413430;28;20051;-57
2022/06/24 10:11:14;;;;;;;6.97;3.35;;;22.30;93.20;;;;;;10406235;28;20650;-59
2022/06/24 10:16:15;;;;;;;3.65;2.95;;;22.30;93.50;;;;;;10406903;28;20177;-57
2022/06/24 10:21:17;;;;;;;4.85;3.30;;;22.20;93.90;;;;;;10407911;28;20315;-58
2022/06/24 10:26:26;;;;;;;4.63;3.22;;;22.10;94.10;;;;;;10410863;28;20048;-58
2022/06/24 10:31:43;;;;;;;7.75;3.60;;;22.10;94.50;;;;;;10426637;28;20043;-61
2022/06/24 10:36:43;;;;;;;5.30;3.30;;;22.10;94.90;;;;;;10420423;28;20142;-57
2022/06/24 10:41:44;;;;;;;5.90;3.78;;;22.10;94.80;;;;;;10423042;28;20888;-57
2022/06/24 10:46:45;;;;;;;5.35;3.35;;;22.10;94.70;;;;;;10414867;28;20164;-58
2022/06/24 10:51:46;;;;;;;5.00;4.40;;;22.10;95.00;;;;;;10426964;28;20020;-60
2022/06/24 10:56:50;;;;;;;7.60;4.32;;;22.10;94.90;;;;;;10426887;28;20034;-58
2022/06/24 11:01:52;;;;;;;5.90;4.72;;;22.10;95.30;;;;;;10421822;28;20067;-58
2022/06/24 11:07:10;;;;;;;7.50;5.90;;;22.10;95.00;;;;;;10425783;28;20044;-58
2022/06/24 11:12:31;;;;;;;8.00;6.38;;;22.10;95.40;;;;;;10424755;28;20109;-62
2022/06/24 11:17:31;;;;;;;9.60;7.03;;;22.10;95.40;;;;;;10419354;28;20985;-57
2022/06/24 11:22:45;;;;;;;8.80;6.50;;;22.20;95.10;;;;;;10433216;28;20044;-58
2022/06/24 11:27:46;;;;;;;9.57;6.78;;;22.30;95.40;;;;;;10415903;28;20077;-59
2022/06/24 11:32:56;;;;;;;12.35;7.93;;;22.40;95.00;;;;;;10428919;28;20055;-59
2022/06/24 11:37:57;;;;;;;11.27;8.18;;;22.60;95.10;;;;;;10421038;28;20093;-59
2022/06/24 11:43:09;;;;;;;11.73;7.70;;;22.60;95.00;;;;;;10412536;28;20229;-58
2022/06/24 11:48:17;;;;;;;9.95;7.53;;;22.70;95.30;;;;;;10416029;28;20245;-59
2022/06/24 11:53:25;;;;;;;11.43;8.00;;;22.80;94.80;;;;;;10416022;28;20028;-58
2022/06/24 11:58:26;;;;;;;14.05;7.55;;;22.90;94.50;;;;;;10409332;28;20100;-59
2022/06/24 12:03:27;;;;;;;11.70;8.40;;;23.00;94.60;;;;;;10415523;28;20123;-60
2022/06/24 12:08:28;;;;;;;13.73;7.72;;;22.90;94.60;;;;;;10416842;28;20056;-59
2022/06/24 12:13:32;;;;;;;10.75;8.25;;;23.10;94.60;;;;;;10414093;28;20057;-59
2022/06/24 12:18:34;;;;;;;12.48;8.15;;;23.10;94.70;;;;;;10415237;28;20416;-59
2022/06/24 12:23:37;;;;;;;11.55;8.90;;;23.20;94.40;;;;;;10410066;28;20044;-60
2022/06/24 12:28:38;;;;;;;12.13;9.10;;;23.20;94.50;;;;;;10415779;28;20024;-61
2022/06/24 12:33:44;;;;;;;9.60;7.90;;;23.30;94.20;;;;;;10417252;28;20084;-59
2022/06/24 12:39:05;;;;;;;12.35;8.98;;;23.30;94.10;;;;;;10421508;28;20024;-60
2022/06/24 12:44:06;;;;;;;13.02;9.70;;;23.30;94.40;;;;;;10424267;28;20047;-59
2022/06/24 12:54:33;;;;;;;16.70;10.93;;;23.40;94.00;;;;;;10412445;28;20036;-58
2022/06/24 12:59:34;;;;;;;16.52;12.00;;;23.40;93.90;;;;;;10412179;28;20944;-58
2022/06/24 13:04:35;;;;;;;13.38;11.20;;;23.50;93.80;;;;;;10408467;28;20048;-58
2022/06/24 13:09:35;;;;;;;17.92;13.23;;;23.70;93.60;;;;;;10411384;28;20029;-58
2022/06/24 13:14:36;;;;;;;19.00;15.05;;;23.80;93.40;;;;;;10415025;28;20486;-58
2022/06/24 13:19:37;;;;;;;20.25;15.00;;;23.90;93.30;;;;;;10410740;28;20036;-58
2022/06/24 13:24:38;;;;;;;17.60;13.55;;;23.90;93.30;;;;;;10412766;28;20522;-58
2022/06/24 13:29:39;;;;;;;17.98;14.00;;;24.10;93.10;;;;;;10410933;28;20043;-58
2022/06/24 13:34:40;;;;;;;20.50;15.52;;;24.10;93.00;;;;;;10412378;28;20027;-59
2022/06/24 13:39:41;;;;;;;16.90;14.02;;;24.10;93.10;;;;;;10404011;28;20032;-58
2022/06/24 13:44:42;;;;;;;15.82;12.68;;;24.30;92.90;;;;;;10405023;28;20040;-58
2022/06/24 13:49:42;;;;;;;18.30;12.25;;;24.50;92.70;;;;;;10408205;28;20119;-58
2022/06/24 13:54:43;;;;;;;17.05;12.80;;;24.80;92.00;;;;;;10408106;28;20031;-59
2022/06/24 13:59:45;;;;;;;19.00;12.88;;;24.80;91.60;;;;;;10400572;28;20025;-65
2022/06/24 14:04:45;;;;;;;13.90;11.15;;;24.80;91.60;;;;;;10406445;28;20313;-59
2022/06/24 14:09:46;;;;;;;12.10;9.95;;;24.70;91.60;;;;;;10407086;28;20024;-59
2022/06/24 14:14:47;;;;;;;11.02;9.13;;;24.60;91.50;;;;;;10408906;28;20032;-62
2022/06/24 14:19:47;;;;;;;10.93;9.48;;;24.50;91.60;;;;;;10405201;28;20044;-59
2022/06/24 14:24:48;;;;;;;13.30;9.10;;;24.40;91.50;;;;;;10412066;28;20438;-59
2022/06/24 14:29:49;;;;;;;8.52;7.63;;;24.40;91.50;;;;;;10407046;28;20117;-59
2022/06/24 14:34:49;;;;;;;11.20;7.53;;;24.40;91.30;;;;;;10408909;28;20036;-61
2022/06/24 14:45:10;;;;;;;9.43;7.40;;;24.70;90.80;;;;;;10403372;28;20036;-59
2022/06/24 14:50:11;;;;;;;8.02;6.03;;;24.90;90.60;;;;;;10404931;28;20028;-61
2022/06/24 14:55:12;;;;;;;5.75;4.80;;;24.80;90.50;;;;;;10410462;28;20519;-62
2022/06/24 15:00:12;;;;;;;6.65;4.20;;;24.80;90.20;;;;;;10415808;28;20834;-65
2022/06/24 15:05:14;;;;;;;5.20;4.20;;;24.70;90.30;;;;;;10408436;28;20159;-60
2022/06/24 15:10:14;;;;;;;7.05;5.10;;;24.70;90.20;;;;;;10400782;28;20025;-59
2022/06/24 15:15:15;;;;;;;4.70;4.05;;;24.80;89.80;;;;;;10408115;28;20033;-60
2022/06/24 15:20:16;;;;;;;6.45;5.55;;;24.80;89.60;;;;;;10412881;28;20369;-59
2022/06/24 15:25:16;;;;;;;6.43;4.57;;;24.60;89.80;;;;;;10412126;28;20036;-60
2022/06/24 15:30:17;;;;;;;5.80;4.38;;;24.40;90.30;;;;;;10413883;28;20220;-58
2022/06/24 15:35:18;;;;;;;4.57;3.95;;;24.20;90.70;;;;;;10412637;28;20107;-60
2022/06/24 15:40:20;;;;;;;7.25;4.57;;;24.00;90.90;;;;;;10411297;28;20055;-61
2022/06/24 15:45:21;;;;;;;6.28;4.20;;;24.00;91.10;;;;;;10405211;28;20363;-60
2022/06/24 15:50:23;;;;;;;4.72;3.83;;;23.90;91.30;;;;;;10414434;28;20024;-58
2022/06/24 15:55:24;;;;;;;4.72;4.20;;;23.90;91.30;;;;;;10409711;28;20059;-59
2022/06/24 16:00:25;;;;;;;5.25;3.70;;;23.80;91.40;;;;;;10412555;28;20179;-62
2022/06/24 16:05:25;;;;;;;4.32;3.60;;;23.80;91.50;;;;;;10414530;28;20149;-57
2022/06/24 16:10:26;;;;;;;5.35;3.50;;;23.80;91.50;;;;;;10421362;28;20049;-58
2022/06/24 16:15:27;;;;;;;3.88;3.00;;;23.80;91.50;;;;;;10420350;28;20036;-61
2022/06/24 16:20:28;;;;;;;4.47;3.25;;;23.70;91.60;;;;;;10411388;28;21586;-58
2022/06/24 16:30:48;;;;;;;9.75;8.27;;;23.70;91.70;;;;;;10416711;28;20093;-60
2022/06/24 16:35:49;;;;;;;8.90;7.97;;;23.60;92.50;;;;;;10405290;28;20089;-59
2022/06/24 16:40:50;;;;;;;9.68;8.00;;;23.20;93.60;;;;;;10408923;28;20662;-59
2022/06/24 16:45:53;;;;;;;10.18;7.88;;;23.00;94.50;;;;;;10409850;28;20051;-59
2022/06/24 16:50:54;;;;;;;12.73;9.40;;;23.00;95.00;;;;;;10409416;28;20029;-59
2022/06/24 16:55:55;;;;;;;11.15;9.75;;;23.00;95.30;;;;;;10405083;28;20821;-59
2022/06/24 17:00:57;;;;;;;14.55;10.52;;;23.10;95.40;;;;;;10407745;28;20040;-59
2022/06/24 17:06:01;;;;;;;11.70;9.77;;;23.20;95.60;;;;;;10407676;28;20440;-59
2022/06/24 17:11:03;;;;;;;13.02;9.38;;;23.30;95.20;;;;;;10407034;28;20034;-57
2022/06/24 17:16:05;;;;;;;11.00;9.85;;;23.30;95.30;;;;;;10405811;28;20385;-57
2022/06/24 17:21:06;;;;;;;13.48;9.88;;;23.20;95.40;;;;;;10432486;28;20135;-57
2022/06/24 17:26:06;;;;;;;11.73;9.40;;;23.20;95.50;;;;;;10460526;28;20109;-57
2022/06/24 17:31:07;;;;;;;14.57;11.05;;;23.30;95.80;;;;;;10481004;28;20024;-57
2022/06/24 17:36:08;;;;;;;16.23;12.40;;;23.20;95.90;;;;;;10413060;28;20143;-58
2022/06/24 17:41:09;;;;;;;20.73;14.30;;;23.20;96.00;;;;;;10403175;28;20074;-60
2022/06/24 17:46:10;;;;;;;21.65;16.80;;;23.10;96.10;;;;;;10403490;28;20082;-57
2022/06/24 17:51:11;;;;;;;15.35;12.57;;;23.00;96.30;;;;;;10403049;28;20618;-61
2022/06/24 17:56:11;;;;;;;14.73;11.30;;;22.90;96.60;;;;;;10409469;28;20225;-59
2022/06/24 18:01:12;;;;;;;12.18;10.00;;;22.70;96.90;;;;;;10408159;28;20020;-60
2022/06/24 18:06:13;;;;;;;12.45;10.18;;;22.70;97.20;;;;;;10407584;28;21005;-59
2022/06/24 18:11:13;;;;;;;12.10;9.07;;;22.50;97.10;;;;;;10403182;28;20120;-59
2022/06/24 18:16:14;;;;;;;14.73;10.13;;;22.40;97.30;;;;;;10396763;28;20053;-59
2022/06/24 18:21:15;;;;;;;12.55;9.70;;;22.40;97.30;;;;;;10409928;28;20481;-60
2022/06/24 18:26:17;;;;;;;12.38;9.82;;;22.50;97.40;;;;;;10416877;28;20044;-60
2022/06/24 18:31:19;;;;;;;13.45;10.38;;;22.50;97.30;;;;;;10394614;28;20032;-60
2022/06/24 18:36:21;;;;;;;18.70;11.93;;;22.40;97.40;;;;;;10411696;28;20069;-60
2022/06/24 18:41:22;;;;;;;16.25;11.52;;;22.40;97.30;;;;;;10409398;28;20927;-60
2022/06/24 18:46:23;;;;;;;18.45;11.10;;;22.40;97.20;;;;;;10397105;28;20043;-60
2022/06/24 18:51:25;;;;;;;16.58;10.82;;;22.50;97.10;;;;;;10408321;28;20028;-60
2022/06/24 18:56:26;;;;;;;15.30;10.13;;;22.50;97.00;;;;;;10418864;28;20318;-60
2022/06/24 19:01:27;;;;;;;12.23;9.38;;;22.40;96.90;;;;;;10409568;28;20059;-60
2022/06/24 19:06:28;;;;;;;11.35;8.90;;;22.40;96.80;;;;;;10421776;28;20159;-60
2022/06/24 19:11:28;;;;;;;15.52;10.02;;;22.30;96.90;;;;;;10415049;28;20142;-59
2022/06/24 19:16:29;;;;;;;13.02;8.45;;;22.20;97.10;;;;;;10417491;28;20163;-59
2022/06/24 19:21:30;;;;;;;15.55;8.57;;;22.10;97.40;;;;;;10424450;28;20028;-62
2022/06/24 19:26:31;;;;;;;10.80;7.97;;;22.00;97.20;;;;;;10428396;28;20143;-60
2022/06/24 19:31:32;;;;;;;12.88;8.82;;;22.00;97.20;;;;;;10422120;28;20496;-61
2022/06/24 19:36:32;;;;;;;12.40;8.02;;;21.90;97.40;;;;;;10404916;28;20197;-61
2022/06/24 19:41:35;;;;;;;12.68;7.82;;;21.80;97.50;;;;;;10415213;28;20020;-59
2022/06/24 19:46:36;;;;;;;13.52;7.80;;;21.70;97.40;;;;;;10408063;28;20036;-60
2022/06/24 19:51:37;;;;;;;11.85;8.02;;;21.60;97.60;;;;;;10411283;28;20283;-59
2022/06/24 19:56:37;;;;;;;11.38;7.82;;;21.60;97.60;;;;;;10410549;28;20026;-60
2022/06/24 20:06:58;;;;;;;15.43;9.73;;;21.50;97.80;;;;;;10409753;28;20083;-58
2022/06/24 20:12:01;;;;;;;14.77;9.77;;;21.40;98.00;;;;;;10414321;28;20304;-57
2022/06/24 20:17:04;;;;;;;15.02;8.30;;;21.30;98.00;;;;;;10408506;28;21139;-56
2022/06/24 20:22:04;;;;;;;10.60;7.93;;;21.30;98.00;;;;;;10407659;28;20556;-56
2022/06/24 20:27:07;;;;;;;9.77;6.53;;;21.40;97.90;;;;;;10414961;28;20233;-57
2022/06/24 20:32:09;;;;;;;10.15;6.53;;;21.50;97.70;;;;;;10489358;28;20035;-61
2022/06/24 20:37:10;;;;;;;7.88;5.72;;;21.60;97.60;;;;;;10500683;28;20043;-60
2022/06/24 20:42:11;;;;;;;9.75;5.40;;;21.70;97.40;;;;;;10501828;28;20435;-60
2022/06/24 20:47:11;;;;;;;8.95;5.32;;;21.70;97.30;;;;;;10492811;28;20036;-59
2022/06/24 20:52:12;;;;;;;8.02;4.72;;;21.70;97.20;;;;;;10495876;28;20055;-57
2022/06/24 20:57:13;;;;;;;6.50;4.78;;;21.80;97.20;;;;;;10496337;28;20037;-61
2022/06/24 21:02:13;;;;;;;6.43;4.25;;;21.80;97.10;;;;;;10503468;28;20078;-58
2022/06/24 21:07:14;;;;;;;5.65;4.70;;;21.80;97.00;;;;;;10503279;28;20059;-57
2022/06/24 21:12:15;;;;;;;7.40;4.78;;;21.80;97.00;;;;;;10499222;28;20028;-64
2022/06/24 21:17:17;;;;;;;5.70;4.38;;;21.80;96.90;;;;;;10505089;28;20053;-56
2022/06/24 21:22:18;;;;;;;5.43;4.47;;;21.80;96.90;;;;;;10504329;28;20159;-57
2022/06/24 21:27:20;;;;;;;5.22;4.10;;;21.80;96.80;;;;;;10502528;28;20044;-56
2022/06/24 21:32:21;;;;;;;6.13;4.55;;;21.80;96.80;;;;;;10503812;28;20077;-59
2022/06/24 21:37:22;;;;;;;6.72;4.28;;;21.80;96.80;;;;;;10505775;28;20112;-57
2022/06/24 21:42:22;;;;;;;4.88;4.25;;;21.80;96.70;;;;;;10503488;28;20028;-59
2022/06/24 21:47:24;;;;;;;5.50;4.40;;;21.80;96.60;;;;;;10502333;28;20051;-61
2022/06/24 21:52:24;;;;;;;6.68;4.60;;;21.80;96.90;;;;;;10496482;28;20091;-56
2022/06/24 21:57:26;;;;;;;5.85;4.15;;;21.80;96.60;;;;;;10505232;28;20140;-56
2022/06/24 22:02:27;;;;;;;6.90;4.05;;;21.80;96.50;;;;;;10503376;28;20027;-60
2022/06/24 22:07:28;;;;;;;5.18;4.18;;;21.80;96.50;;;;;;10497074;28;20551;-57
2022/06/24 22:12:29;;;;;;;5.38;4.55;;;21.80;96.50;;;;;;10505233;28;20140;-56
2022/06/24 22:17:48;;;;;;;5.63;4.30;;;21.70;96.40;;;;;;10505718;28;20535;-60
2022/06/24 22:22:49;;;;;;;5.90;4.38;;;21.70;96.40;;;;;;10505312;28;20885;-57
2022/06/24 22:27:50;;;;;;;5.20;4.25;;;21.70;96.40;;;;;;10506194;28;20097;-59
2022/06/24 22:32:51;;;;;;;5.00;4.07;;;21.70;96.30;;;;;;10511748;28;20050;-58
2022/06/24 22:37:51;;;;;;;4.65;3.97;;;21.70;96.30;;;;;;10495457;28;21329;-56
2022/06/24 22:42:53;;;;;;;5.32;4.35;;;21.70;96.30;;;;;;10503041;28;20040;-56
2022/06/24 22:47:54;;;;;;;5.97;4.22;;;21.60;96.30;;;;;;10498423;28;20535;-60
2022/06/24 22:52:56;;;;;;;5.35;4.43;;;21.60;96.50;;;;;;10501985;28;20028;-56
2022/06/24 22:57:56;;;;;;;5.53;4.15;;;21.60;96.20;;;;;;10501359;28;20055;-58
2022/06/24 23:02:58;;;;;;;4.63;4.18;;;21.60;96.20;;;;;;10498960;28;20043;-56
2022/06/24 23:07:59;;;;;;;5.20;4.20;;;21.60;96.20;;;;;;10498784;28;22763;-56
2022/06/24 23:13:00;;;;;;;6.07;5.20;;;21.50;96.10;;;;;;10502605;28;20343;-57
2022/06/24 23:18:01;;;;;;;6.30;5.07;;;21.50;96.10;;;;;;10504367;28;20558;-58
2022/06/24 23:23:01;;;;;;;7.75;4.93;;;21.50;96.10;;;;;;10500071;28;20036;-58
2022/06/24 23:28:02;;;;;;;6.30;5.18;;;21.50;96.10;;;;;;10498489;28;20039;-60
2022/06/24 23:33:03;;;;;;;6.10;4.97;;;21.50;96.00;;;;;;10498302;28;20028;-57
2022/06/24 23:38:03;;;;;;;6.72;5.10;;;21.60;96.00;;;;;;10509276;28;20484;-59
2022/06/24 23:43:04;;;;;;;6.60;5.18;;;21.40;96.00;;;;;;10504230;28;20093;-57
2022/06/24 23:53:24;;;;;;;6.60;5.25;;;21.40;96.00;;;;;;10507263;28;20039;-61
2022/06/24 23:58:25;;;;;;;6.00;4.80;;;21.40;96.00;;;;;;10510940;28;20015;-58
